sensor_id;sensor_type;location;lat;lon;timestamp;P1;durP1;ratioP1;P2;durP2;ratioP2
62861;SDS011;48953;53.110;5.592;2022-08-01T00:00:08;1.85;;;1.42;;
62861;SDS011;48953;53.110;5.592;2022-08-01T00:02:34;2.40;;;1.70;;
62861;SDS011;48953;53.110;5.592;2022-08-01T00:05:03;2.42;;;1.67;;
62861;SDS011;48953;53.110;5.592;2022-08-01T00:07:33;3.40;;;1.67;;
62861;SDS011;48953;53.110;5.592;2022-08-01T00:10:00;4.93;;;2.03;;
62861;SDS011;48953;53.110;5.592;2022-08-01T00:12:26;5.00;;;2.42;;
62861;SDS011;48953;53.110;5.592;2022-08-01T00:14:51;3.97;;;2.40;;
62861;SDS011;48953;53.110;5.592;2022-08-01T00:17:17;6.18;;;3.10;;
62861;SDS011;48953;53.110;5.592;2022-08-01T00:19:43;5.35;;;2.90;;
62861;SDS011;48953;53.110;5.592;2022-08-01T00:22:08;4.82;;;2.88;;
62861;SDS011;48953;53.110;5.592;2022-08-01T00:24:34;3.80;;;2.70;;
62861;SDS011;48953;53.110;5.592;2022-08-01T00:26:59;5.97;;;3.03;;
62861;SDS011;48953;53.110;5.592;2022-08-01T00:29:25;6.65;;;2.67;;
62861;SDS011;48953;53.110;5.592;2022-08-01T00:31:50;8.13;;;3.67;;
62861;SDS011;48953;53.110;5.592;2022-08-01T00:34:16;11.82;;;4.28;;
62861;SDS011;48953;53.110;5.592;2022-08-01T00:36:42;7.05;;;3.00;;
62861;SDS011;48953;53.110;5.592;2022-08-01T00:39:09;6.55;;;3.60;;
62861;SDS011;48953;53.110;5.592;2022-08-01T00:41:35;7.28;;;4.53;;
62861;SDS011;48953;53.110;5.592;2022-08-01T00:44:04;6.00;;;2.80;;
62861;SDS011;48953;53.110;5.592;2022-08-01T00:46:30;7.93;;;3.85;;
62861;SDS011;48953;53.110;5.592;2022-08-01T00:48:57;6.38;;;3.42;;
62861;SDS011;48953;53.110;5.592;2022-08-01T00:51:23;5.43;;;2.75;;
62861;SDS011;48953;53.110;5.592;2022-08-01T00:53:50;8.93;;;3.40;;
62861;SDS011;48953;53.110;5.592;2022-08-01T00:56:16;7.18;;;4.38;;
62861;SDS011;48953;53.110;5.592;2022-08-01T00:58:42;6.63;;;4.13;;
62861;SDS011;48953;53.110;5.592;2022-08-01T01:01:08;8.88;;;3.67;;
62861;SDS011;48953;53.110;5.592;2022-08-01T01:03:34;6.10;;;3.53;;
62861;SDS011;48953;53.110;5.592;2022-08-01T01:06:04;7.07;;;3.88;;
62861;SDS011;48953;53.110;5.592;2022-08-01T01:08:39;6.43;;;3.45;;
62861;SDS011;48953;53.110;5.592;2022-08-01T01:11:17;8.20;;;2.83;;
62861;SDS011;48953;53.110;5.592;2022-08-01T01:13:52;7.15;;;3.05;;
62861;SDS011;48953;53.110;5.592;2022-08-01T01:16:22;9.05;;;2.78;;
62861;SDS011;48953;53.110;5.592;2022-08-01T01:18:53;4.82;;;3.17;;
62861;SDS011;48953;53.110;5.592;2022-08-01T01:26:56;5.40;;;2.65;;
62861;SDS011;48953;53.110;5.592;2022-08-01T01:29:41;7.82;;;2.35;;
62861;SDS011;48953;53.110;5.592;2022-08-01T01:32:19;6.57;;;2.30;;
62861;SDS011;48953;53.110;5.592;2022-08-01T01:34:59;3.83;;;2.20;;
62861;SDS011;48953;53.110;5.592;2022-08-01T01:37:29;9.50;;;2.50;;
62861;SDS011;48953;53.110;5.592;2022-08-01T01:39:56;3.70;;;2.22;;
62861;SDS011;48953;53.110;5.592;2022-08-01T01:42:23;4.18;;;2.13;;
62861;SDS011;48953;53.110;5.592;2022-08-01T01:44:51;4.82;;;1.70;;
62861;SDS011;48953;53.110;5.592;2022-08-01T01:47:19;4.13;;;2.45;;
62861;SDS011;48953;53.110;5.592;2022-08-01T01:49:46;7.22;;;2.60;;
62861;SDS011;48953;53.110;5.592;2022-08-01T01:52:14;9.48;;;2.47;;
62861;SDS011;48953;53.110;5.592;2022-08-01T01:54:42;8.98;;;2.85;;
62861;SDS011;48953;53.110;5.592;2022-08-01T01:57:12;12.60;;;2.65;;
62861;SDS011;48953;53.110;5.592;2022-08-01T01:59:39;10.20;;;3.30;;
62861;SDS011;48953;53.110;5.592;2022-08-01T02:02:06;9.95;;;2.70;;
62861;SDS011;48953;53.110;5.592;2022-08-01T02:04:38;10.23;;;4.13;;
62861;SDS011;48953;53.110;5.592;2022-08-01T02:07:10;10.82;;;2.47;;
62861;SDS011;48953;53.110;5.592;2022-08-01T02:09:40;12.50;;;3.20;;
62861;SDS011;48953;53.110;5.592;2022-08-01T02:12:07;6.95;;;2.38;;
62861;SDS011;48953;53.110;5.592;2022-08-01T02:14:36;11.43;;;2.92;;
62861;SDS011;48953;53.110;5.592;2022-08-01T02:17:04;6.57;;;2.38;;
62861;SDS011;48953;53.110;5.592;2022-08-01T02:19:30;10.68;;;2.72;;
62861;SDS011;48953;53.110;5.592;2022-08-01T02:22:04;10.85;;;2.72;;
62861;SDS011;48953;53.110;5.592;2022-08-01T02:30:12;9.98;;;2.35;;
62861;SDS011;48953;53.110;5.592;2022-08-01T02:32:43;9.15;;;2.30;;
62861;SDS011;48953;53.110;5.592;2022-08-01T02:35:12;8.52;;;2.70;;
62861;SDS011;48953;53.110;5.592;2022-08-01T02:37:42;8.77;;;2.65;;
62861;SDS011;48953;53.110;5.592;2022-08-01T02:40:10;11.95;;;2.30;;
62861;SDS011;48953;53.110;5.592;2022-08-01T02:42:38;9.48;;;2.38;;
62861;SDS011;48953;53.110;5.592;2022-08-01T02:45:06;11.60;;;2.60;;
62861;SDS011;48953;53.110;5.592;2022-08-01T02:47:33;9.50;;;2.92;;
62861;SDS011;48953;53.110;5.592;2022-08-01T02:50:02;9.77;;;3.10;;
62861;SDS011;48953;53.110;5.592;2022-08-01T02:52:29;13.18;;;3.55;;
62861;SDS011;48953;53.110;5.592;2022-08-01T02:54:56;9.50;;;2.83;;
62861;SDS011;48953;53.110;5.592;2022-08-01T02:57:23;5.60;;;2.40;;
62861;SDS011;48953;53.110;5.592;2022-08-01T02:59:51;9.25;;;2.30;;
62861;SDS011;48953;53.110;5.592;2022-08-01T03:02:19;5.50;;;2.70;;
62861;SDS011;48953;53.110;5.592;2022-08-01T03:04:47;7.82;;;2.65;;
62861;SDS011;48953;53.110;5.592;2022-08-01T03:07:13;8.25;;;2.65;;
62861;SDS011;48953;53.110;5.592;2022-08-01T03:09:42;6.05;;;2.30;;
62861;SDS011;48953;53.110;5.592;2022-08-01T03:12:10;9.85;;;2.60;;
62861;SDS011;48953;53.110;5.592;2022-08-01T03:14:42;13.43;;;2.67;;
62861;SDS011;48953;53.110;5.592;2022-08-01T03:17:09;9.50;;;2.08;;
62861;SDS011;48953;53.110;5.592;2022-08-01T03:19:36;11.40;;;2.50;;
62861;SDS011;48953;53.110;5.592;2022-08-01T03:22:03;10.80;;;2.33;;
62861;SDS011;48953;53.110;5.592;2022-08-01T03:24:33;8.98;;;2.22;;
62861;SDS011;48953;53.110;5.592;2022-08-01T03:27:00;13.02;;;2.40;;
62861;SDS011;48953;53.110;5.592;2022-08-01T03:29:27;6.88;;;2.10;;
62861;SDS011;48953;53.110;5.592;2022-08-01T03:31:56;7.30;;;1.95;;
62861;SDS011;48953;53.110;5.592;2022-08-01T03:34:24;12.20;;;2.20;;
62861;SDS011;48953;53.110;5.592;2022-08-01T03:40:02;9.40;;;2.70;;
62861;SDS011;48953;53.110;5.592;2022-08-01T03:42:33;8.73;;;2.00;;
62861;SDS011;48953;53.110;5.592;2022-08-01T03:45:03;11.48;;;2.88;;
62861;SDS011;48953;53.110;5.592;2022-08-01T03:47:34;14.52;;;2.25;;
62861;SDS011;48953;53.110;5.592;2022-08-01T03:50:01;12.52;;;2.10;;
62861;SDS011;48953;53.110;5.592;2022-08-01T03:52:29;14.50;;;2.47;;
62861;SDS011;48953;53.110;5.592;2022-08-01T03:54:58;15.10;;;2.55;;
62861;SDS011;48953;53.110;5.592;2022-08-01T03:57:34;10.25;;;1.95;;
62861;SDS011;48953;53.110;5.592;2022-08-01T04:00:01;13.55;;;2.03;;
62861;SDS011;48953;53.110;5.592;2022-08-01T04:02:30;8.27;;;1.90;;
62861;SDS011;48953;53.110;5.592;2022-08-01T04:04:56;10.18;;;1.85;;
62861;SDS011;48953;53.110;5.592;2022-08-01T04:07:25;10.10;;;1.88;;
62861;SDS011;48953;53.110;5.592;2022-08-01T04:09:52;11.27;;;1.92;;
62861;SDS011;48953;53.110;5.592;2022-08-01T04:12:18;12.02;;;1.85;;
62861;SDS011;48953;53.110;5.592;2022-08-01T04:14:43;15.80;;;2.25;;
62861;SDS011;48953;53.110;5.592;2022-08-01T04:17:09;10.13;;;2.20;;
62861;SDS011;48953;53.110;5.592;2022-08-01T04:19:35;12.63;;;2.47;;
62861;SDS011;48953;53.110;5.592;2022-08-01T04:22:00;13.90;;;2.28;;
62861;SDS011;48953;53.110;5.592;2022-08-01T04:24:27;9.32;;;1.90;;
62861;SDS011;48953;53.110;5.592;2022-08-01T04:26:55;13.45;;;2.67;;
62861;SDS011;48953;53.110;5.592;2022-08-01T04:29:24;9.65;;;2.28;;
62861;SDS011;48953;53.110;5.592;2022-08-01T04:31:52;10.70;;;2.45;;
62861;SDS011;48953;53.110;5.592;2022-08-01T04:34:20;10.65;;;2.40;;
62861;SDS011;48953;53.110;5.592;2022-08-01T04:36:48;10.50;;;2.60;;
62861;SDS011;48953;53.110;5.592;2022-08-01T04:39:16;12.77;;;2.88;;
62861;SDS011;48953;53.110;5.592;2022-08-01T04:41:44;10.98;;;2.35;;
62861;SDS011;48953;53.110;5.592;2022-08-01T04:44:11;15.07;;;2.70;;
62861;SDS011;48953;53.110;5.592;2022-08-01T04:46:38;6.00;;;2.08;;
62861;SDS011;48953;53.110;5.592;2022-08-01T04:49:05;9.15;;;2.38;;
62861;SDS011;48953;53.110;5.592;2022-08-01T04:51:32;8.90;;;2.33;;
62861;SDS011;48953;53.110;5.592;2022-08-01T04:53:58;9.02;;;2.00;;
62861;SDS011;48953;53.110;5.592;2022-08-01T04:56:23;13.07;;;2.17;;
62861;SDS011;48953;53.110;5.592;2022-08-01T04:58:49;14.13;;;2.10;;
62861;SDS011;48953;53.110;5.592;2022-08-01T05:01:34;11.05;;;2.53;;
62861;SDS011;48953;53.110;5.592;2022-08-01T05:04:00;14.25;;;2.35;;
62861;SDS011;48953;53.110;5.592;2022-08-01T05:06:26;11.98;;;2.50;;
62861;SDS011;48953;53.110;5.592;2022-08-01T05:08:51;12.52;;;2.40;;
62861;SDS011;48953;53.110;5.592;2022-08-01T05:11:17;14.52;;;2.20;;
62861;SDS011;48953;53.110;5.592;2022-08-01T05:13:42;12.07;;;2.67;;
62861;SDS011;48953;53.110;5.592;2022-08-01T05:16:08;11.85;;;2.78;;
62861;SDS011;48953;53.110;5.592;2022-08-01T05:18:33;10.05;;;1.85;;
62861;SDS011;48953;53.110;5.592;2022-08-01T05:20:59;7.45;;;1.90;;
62861;SDS011;48953;53.110;5.592;2022-08-01T05:23:25;8.85;;;2.17;;
62861;SDS011;48953;53.110;5.592;2022-08-01T05:25:52;13.20;;;2.65;;
62861;SDS011;48953;53.110;5.592;2022-08-01T05:28:17;10.02;;;2.42;;
62861;SDS011;48953;53.110;5.592;2022-08-01T05:30:43;10.25;;;2.60;;
62861;SDS011;48953;53.110;5.592;2022-08-01T05:33:08;9.88;;;2.50;;
62861;SDS011;48953;53.110;5.592;2022-08-01T05:35:34;13.63;;;2.80;;
62861;SDS011;48953;53.110;5.592;2022-08-01T05:37:59;15.13;;;2.60;;
62861;SDS011;48953;53.110;5.592;2022-08-01T05:40:25;9.38;;;2.40;;
62861;SDS011;48953;53.110;5.592;2022-08-01T05:42:50;12.98;;;2.10;;
62861;SDS011;48953;53.110;5.592;2022-08-01T05:45:16;13.50;;;2.60;;
62861;SDS011;48953;53.110;5.592;2022-08-01T05:47:41;7.82;;;1.95;;
62861;SDS011;48953;53.110;5.592;2022-08-01T05:50:07;12.77;;;2.92;;
62861;SDS011;48953;53.110;5.592;2022-08-01T05:52:33;9.02;;;2.08;;
62861;SDS011;48953;53.110;5.592;2022-08-01T05:54:59;10.27;;;2.42;;
62861;SDS011;48953;53.110;5.592;2022-08-01T05:57:24;10.05;;;2.80;;
62861;SDS011;48953;53.110;5.592;2022-08-01T05:59:50;6.15;;;1.77;;
62861;SDS011;48953;53.110;5.592;2022-08-01T06:02:15;10.75;;;2.50;;
62861;SDS011;48953;53.110;5.592;2022-08-01T06:04:41;8.23;;;2.25;;
62861;SDS011;48953;53.110;5.592;2022-08-01T06:07:07;10.40;;;2.28;;
62861;SDS011;48953;53.110;5.592;2022-08-01T06:09:32;7.00;;;2.72;;
62861;SDS011;48953;53.110;5.592;2022-08-01T06:11:58;6.28;;;1.90;;
62861;SDS011;48953;53.110;5.592;2022-08-01T06:14:23;8.00;;;1.63;;
62861;SDS011;48953;53.110;5.592;2022-08-01T06:16:49;7.55;;;1.88;;
62861;SDS011;48953;53.110;5.592;2022-08-01T06:19:14;12.30;;;1.77;;
62861;SDS011;48953;53.110;5.592;2022-08-01T06:21:40;8.60;;;1.90;;
62861;SDS011;48953;53.110;5.592;2022-08-01T06:24:05;11.43;;;2.17;;
62861;SDS011;48953;53.110;5.592;2022-08-01T06:26:31;6.63;;;1.73;;
62861;SDS011;48953;53.110;5.592;2022-08-01T06:28:57;7.57;;;1.70;;
62861;SDS011;48953;53.110;5.592;2022-08-01T06:31:22;7.78;;;1.30;;
62861;SDS011;48953;53.110;5.592;2022-08-01T06:33:48;8.30;;;1.67;;
62861;SDS011;48953;53.110;5.592;2022-08-01T06:36:14;10.68;;;2.10;;
62861;SDS011;48953;53.110;5.592;2022-08-01T06:38:39;8.55;;;1.90;;
62861;SDS011;48953;53.110;5.592;2022-08-01T06:41:05;6.07;;;1.50;;
62861;SDS011;48953;53.110;5.592;2022-08-01T06:43:30;6.10;;;1.30;;
62861;SDS011;48953;53.110;5.592;2022-08-01T06:45:56;9.45;;;1.17;;
62861;SDS011;48953;53.110;5.592;2022-08-01T06:48:21;6.35;;;1.40;;
62861;SDS011;48953;53.110;5.592;2022-08-01T06:50:47;4.45;;;1.15;;
62861;SDS011;48953;53.110;5.592;2022-08-01T06:53:13;8.32;;;1.50;;
62861;SDS011;48953;53.110;5.592;2022-08-01T06:55:39;8.90;;;1.40;;
62861;SDS011;48953;53.110;5.592;2022-08-01T06:58:04;3.58;;;1.00;;
62861;SDS011;48953;53.110;5.592;2022-08-01T07:00:30;4.18;;;1.30;;
62861;SDS011;48953;53.110;5.592;2022-08-01T07:02:56;9.48;;;1.73;;
62861;SDS011;48953;53.110;5.592;2022-08-01T07:05:23;5.13;;;1.05;;
62861;SDS011;48953;53.110;5.592;2022-08-01T07:07:49;4.80;;;1.08;;
62861;SDS011;48953;53.110;5.592;2022-08-01T07:10:16;4.88;;;1.58;;
62861;SDS011;48953;53.110;5.592;2022-08-01T07:12:41;4.88;;;1.13;;
62861;SDS011;48953;53.110;5.592;2022-08-01T07:15:08;6.40;;;1.50;;
62861;SDS011;48953;53.110;5.592;2022-08-01T07:17:38;3.20;;;0.90;;
62861;SDS011;48953;53.110;5.592;2022-08-01T07:20:05;4.80;;;1.10;;
62861;SDS011;48953;53.110;5.592;2022-08-01T07:22:35;5.47;;;1.20;;
62861;SDS011;48953;53.110;5.592;2022-08-01T07:25:01;7.22;;;1.35;;
62861;SDS011;48953;53.110;5.592;2022-08-01T07:27:27;6.72;;;1.25;;
62861;SDS011;48953;53.110;5.592;2022-08-01T07:29:53;5.57;;;1.23;;
62861;SDS011;48953;53.110;5.592;2022-08-01T07:32:18;3.20;;;1.10;;
62861;SDS011;48953;53.110;5.592;2022-08-01T07:34:44;4.85;;;1.40;;
62861;SDS011;48953;53.110;5.592;2022-08-01T07:37:10;3.55;;;1.08;;
62861;SDS011;48953;53.110;5.592;2022-08-01T07:39:35;6.15;;;1.45;;
62861;SDS011;48953;53.110;5.592;2022-08-01T07:42:01;3.03;;;0.77;;
62861;SDS011;48953;53.110;5.592;2022-08-01T07:44:26;8.82;;;1.50;;
62861;SDS011;48953;53.110;5.592;2022-08-01T07:46:52;8.07;;;1.30;;
62861;SDS011;48953;53.110;5.592;2022-08-01T07:49:17;6.75;;;1.27;;
62861;SDS011;48953;53.110;5.592;2022-08-01T07:51:43;6.88;;;1.30;;
62861;SDS011;48953;53.110;5.592;2022-08-01T07:54:09;5.13;;;0.98;;
62861;SDS011;48953;53.110;5.592;2022-08-01T07:56:34;5.43;;;1.40;;
62861;SDS011;48953;53.110;5.592;2022-08-01T07:59:00;5.45;;;1.58;;
62861;SDS011;48953;53.110;5.592;2022-08-01T08:01:25;6.60;;;1.50;;
62861;SDS011;48953;53.110;5.592;2022-08-01T08:03:52;8.82;;;1.52;;
62861;SDS011;48953;53.110;5.592;2022-08-01T08:06:17;5.53;;;1.10;;
62861;SDS011;48953;53.110;5.592;2022-08-01T08:08:43;6.97;;;1.40;;
62861;SDS011;48953;53.110;5.592;2022-08-01T08:11:08;5.03;;;1.42;;
62861;SDS011;48953;53.110;5.592;2022-08-01T08:13:34;4.15;;;1.35;;
62861;SDS011;48953;53.110;5.592;2022-08-01T08:16:00;6.88;;;1.10;;
62861;SDS011;48953;53.110;5.592;2022-08-01T08:18:25;8.23;;;1.38;;
62861;SDS011;48953;53.110;5.592;2022-08-01T08:20:51;6.25;;;1.30;;
62861;SDS011;48953;53.110;5.592;2022-08-01T08:23:16;5.50;;;1.23;;
62861;SDS011;48953;53.110;5.592;2022-08-01T08:26:01;4.20;;;1.40;;
62861;SDS011;48953;53.110;5.592;2022-08-01T08:28:26;5.05;;;1.27;;
62861;SDS011;48953;53.110;5.592;2022-08-01T08:30:52;2.85;;;1.10;;
62861;SDS011;48953;53.110;5.592;2022-08-01T08:33:19;5.85;;;1.17;;
62861;SDS011;48953;53.110;5.592;2022-08-01T08:35:45;6.70;;;1.30;;
62861;SDS011;48953;53.110;5.592;2022-08-01T08:38:11;5.03;;;0.93;;
62861;SDS011;48953;53.110;5.592;2022-08-01T08:40:36;4.07;;;1.30;;
62861;SDS011;48953;53.110;5.592;2022-08-01T08:43:03;4.53;;;1.15;;
62861;SDS011;48953;53.110;5.592;2022-08-01T08:45:30;4.90;;;0.90;;
62861;SDS011;48953;53.110;5.592;2022-08-01T08:47:56;5.68;;;1.10;;
62861;SDS011;48953;53.110;5.592;2022-08-01T08:50:22;4.50;;;1.20;;
62861;SDS011;48953;53.110;5.592;2022-08-01T08:52:50;5.18;;;1.15;;
62861;SDS011;48953;53.110;5.592;2022-08-01T08:55:18;7.65;;;1.63;;
62861;SDS011;48953;53.110;5.592;2022-08-01T08:57:44;4.65;;;0.95;;
62861;SDS011;48953;53.110;5.592;2022-08-01T09:00:10;5.53;;;1.10;;
62861;SDS011;48953;53.110;5.592;2022-08-01T09:02:41;3.63;;;0.98;;
62861;SDS011;48953;53.110;5.592;2022-08-01T09:05:08;6.88;;;1.15;;
62861;SDS011;48953;53.110;5.592;2022-08-01T09:07:34;6.60;;;0.90;;
62861;SDS011;48953;53.110;5.592;2022-08-01T09:10:00;8.05;;;1.20;;
62861;SDS011;48953;53.110;5.592;2022-08-01T09:12:25;5.35;;;1.17;;
62861;SDS011;48953;53.110;5.592;2022-08-01T09:14:51;4.65;;;1.02;;
62861;SDS011;48953;53.110;5.592;2022-08-01T09:17:18;5.15;;;1.13;;
62861;SDS011;48953;53.110;5.592;2022-08-01T09:22:13;4.57;;;1.02;;
62861;SDS011;48953;53.110;5.592;2022-08-01T09:24:52;3.25;;;0.80;;
62861;SDS011;48953;53.110;5.592;2022-08-01T09:27:33;5.40;;;0.90;;
62861;SDS011;48953;53.110;5.592;2022-08-01T09:30:16;5.32;;;0.95;;
62861;SDS011;48953;53.110;5.592;2022-08-01T09:32:52;5.22;;;1.20;;
62861;SDS011;48953;53.110;5.592;2022-08-01T09:35:24;6.43;;;1.20;;
62861;SDS011;48953;53.110;5.592;2022-08-01T09:37:51;4.18;;;0.88;;
62861;SDS011;48953;53.110;5.592;2022-08-01T09:40:16;4.47;;;0.90;;
62861;SDS011;48953;53.110;5.592;2022-08-01T09:42:42;3.35;;;1.00;;
62861;SDS011;48953;53.110;5.592;2022-08-01T09:45:09;4.70;;;0.95;;
62861;SDS011;48953;53.110;5.592;2022-08-01T09:47:39;1.83;;;0.70;;
62861;SDS011;48953;53.110;5.592;2022-08-01T09:50:05;5.82;;;0.98;;
62861;SDS011;48953;53.110;5.592;2022-08-01T09:52:32;8.95;;;1.10;;
62861;SDS011;48953;53.110;5.592;2022-08-01T09:54:58;6.43;;;1.13;;
62861;SDS011;48953;53.110;5.592;2022-08-01T09:57:26;2.80;;;1.10;;
62861;SDS011;48953;53.110;5.592;2022-08-01T09:59:54;5.47;;;0.77;;
62861;SDS011;48953;53.110;5.592;2022-08-01T10:02:28;6.93;;;1.15;;
62861;SDS011;48953;53.110;5.592;2022-08-01T10:04:56;4.40;;;0.95;;
62861;SDS011;48953;53.110;5.592;2022-08-01T10:07:22;5.97;;;0.80;;
62861;SDS011;48953;53.110;5.592;2022-08-01T10:09:47;2.10;;;0.52;;
62861;SDS011;48953;53.110;5.592;2022-08-01T10:12:15;5.22;;;0.80;;
62861;SDS011;48953;53.110;5.592;2022-08-01T10:14:43;4.75;;;1.05;;
62861;SDS011;48953;53.110;5.592;2022-08-01T10:17:12;2.42;;;1.10;;
62861;SDS011;48953;53.110;5.592;2022-08-01T10:19:40;6.75;;;1.30;;
62861;SDS011;48953;53.110;5.592;2022-08-01T10:22:08;3.38;;;0.77;;
62861;SDS011;48953;53.110;5.592;2022-08-01T10:24:36;4.18;;;0.85;;
62861;SDS011;48953;53.110;5.592;2022-08-01T10:27:04;2.78;;;0.70;;
62861;SDS011;48953;53.110;5.592;2022-08-01T10:29:37;2.10;;;0.80;;
62861;SDS011;48953;53.110;5.592;2022-08-01T10:32:07;3.03;;;0.77;;
62861;SDS011;48953;53.110;5.592;2022-08-01T10:34:35;2.53;;;0.43;;
62861;SDS011;48953;53.110;5.592;2022-08-01T10:37:02;4.65;;;0.90;;
62861;SDS011;48953;53.110;5.592;2022-08-01T10:39:29;3.00;;;0.68;;
62861;SDS011;48953;53.110;5.592;2022-08-01T10:41:56;3.53;;;0.93;;
62861;SDS011;48953;53.110;5.592;2022-08-01T10:44:23;3.33;;;0.90;;
62861;SDS011;48953;53.110;5.592;2022-08-01T10:46:50;4.47;;;0.88;;
62861;SDS011;48953;53.110;5.592;2022-08-01T10:49:20;3.35;;;0.70;;
62861;SDS011;48953;53.110;5.592;2022-08-01T10:51:49;3.75;;;1.00;;
62861;SDS011;48953;53.110;5.592;2022-08-01T10:54:15;5.32;;;0.95;;
62861;SDS011;48953;53.110;5.592;2022-08-01T10:56:44;2.70;;;0.80;;
62861;SDS011;48953;53.110;5.592;2022-08-01T10:59:15;2.72;;;0.77;;
62861;SDS011;48953;53.110;5.592;2022-08-01T11:04:31;5.47;;;0.90;;
62861;SDS011;48953;53.110;5.592;2022-08-01T11:07:13;2.83;;;0.80;;
62861;SDS011;48953;53.110;5.592;2022-08-01T11:09:47;2.75;;;0.70;;
62861;SDS011;48953;53.110;5.592;2022-08-01T11:12:37;4.22;;;1.30;;
62861;SDS011;48953;53.110;5.592;2022-08-01T11:25:23;3.08;;;1.05;;
62861;SDS011;48953;53.110;5.592;2022-08-01T11:28:00;2.05;;;0.68;;
62861;SDS011;48953;53.110;5.592;2022-08-01T11:30:41;3.17;;;0.80;;
62861;SDS011;48953;53.110;5.592;2022-08-01T11:33:09;2.30;;;0.88;;
62861;SDS011;48953;53.110;5.592;2022-08-01T11:35:35;5.60;;;0.95;;
62861;SDS011;48953;53.110;5.592;2022-08-01T11:38:22;5.63;;;1.83;;
62861;SDS011;48953;53.110;5.592;2022-08-01T11:41:34;2.42;;;0.80;;
62861;SDS011;48953;53.110;5.592;2022-08-01T11:43:55;3.58;;;0.80;;
62861;SDS011;48953;53.110;5.592;2022-08-01T11:54:40;4.05;;;1.02;;
62861;SDS011;48953;53.110;5.592;2022-08-01T11:57:08;3.38;;;0.63;;
62861;SDS011;48953;53.110;5.592;2022-08-01T11:59:43;3.53;;;1.00;;
62861;SDS011;48953;53.110;5.592;2022-08-01T12:02:16;1.92;;;1.00;;
62861;SDS011;48953;53.110;5.592;2022-08-01T12:04:44;2.95;;;0.80;;
62861;SDS011;48953;53.110;5.592;2022-08-01T12:07:14;5.70;;;0.90;;
62861;SDS011;48953;53.110;5.592;2022-08-01T12:09:40;1.52;;;0.70;;
62861;SDS011;48953;53.110;5.592;2022-08-01T12:12:06;3.80;;;0.82;;
62861;SDS011;48953;53.110;5.592;2022-08-01T12:14:32;5.32;;;1.00;;
62861;SDS011;48953;53.110;5.592;2022-08-01T12:16:57;5.40;;;0.98;;
62861;SDS011;48953;53.110;5.592;2022-08-01T12:19:24;5.75;;;0.98;;
62861;SDS011;48953;53.110;5.592;2022-08-01T12:22:05;2.70;;;0.77;;
62861;SDS011;48953;53.110;5.592;2022-08-01T12:24:36;4.53;;;0.82;;
62861;SDS011;48953;53.110;5.592;2022-08-01T12:27:03;2.75;;;0.68;;
62861;SDS011;48953;53.110;5.592;2022-08-01T12:32:21;3.65;;;0.82;;
62861;SDS011;48953;53.110;5.592;2022-08-01T12:34:49;4.53;;;0.60;;
62861;SDS011;48953;53.110;5.592;2022-08-01T12:37:16;5.22;;;0.82;;
62861;SDS011;48953;53.110;5.592;2022-08-01T12:39:42;4.55;;;0.85;;
62861;SDS011;48953;53.110;5.592;2022-08-01T12:42:09;3.00;;;0.80;;
62861;SDS011;48953;53.110;5.592;2022-08-01T12:44:36;7.50;;;0.80;;
62861;SDS011;48953;53.110;5.592;2022-08-01T12:47:03;2.47;;;0.82;;
62861;SDS011;48953;53.110;5.592;2022-08-01T12:49:31;3.28;;;0.63;;
62861;SDS011;48953;53.110;5.592;2022-08-01T12:54:26;4.10;;;0.80;;
62861;SDS011;48953;53.110;5.592;2022-08-01T12:56:52;5.93;;;0.88;;
62861;SDS011;48953;53.110;5.592;2022-08-01T12:59:22;3.65;;;1.15;;
62861;SDS011;48953;53.110;5.592;2022-08-01T13:01:51;3.72;;;0.82;;
62861;SDS011;48953;53.110;5.592;2022-08-01T13:04:20;4.32;;;0.68;;
62861;SDS011;48953;53.110;5.592;2022-08-01T13:06:47;2.97;;;0.80;;
62861;SDS011;48953;53.110;5.592;2022-08-01T13:09:17;1.98;;;0.70;;
62861;SDS011;48953;53.110;5.592;2022-08-01T13:11:43;6.65;;;1.10;;
62861;SDS011;48953;53.110;5.592;2022-08-01T13:14:09;2.70;;;0.65;;
62861;SDS011;48953;53.110;5.592;2022-08-01T13:16:47;5.50;;;0.90;;
62861;SDS011;48953;53.110;5.592;2022-08-01T13:19:13;3.08;;;0.70;;
62861;SDS011;48953;53.110;5.592;2022-08-01T13:21:38;4.88;;;1.08;;
62861;SDS011;48953;53.110;5.592;2022-08-01T13:24:22;5.60;;;0.88;;
62861;SDS011;48953;53.110;5.592;2022-08-01T13:26:56;4.03;;;1.00;;
62861;SDS011;48953;53.110;5.592;2022-08-01T13:29:36;2.90;;;1.08;;
62861;SDS011;48953;53.110;5.592;2022-08-01T13:34:38;3.22;;;0.73;;
62861;SDS011;48953;53.110;5.592;2022-08-01T13:37:04;3.30;;;0.70;;
62861;SDS011;48953;53.110;5.592;2022-08-01T13:39:30;2.67;;;0.70;;
62861;SDS011;48953;53.110;5.592;2022-08-01T13:42:05;2.33;;;0.60;;
62861;SDS011;48953;53.110;5.592;2022-08-01T13:44:33;3.80;;;0.70;;
62861;SDS011;48953;53.110;5.592;2022-08-01T13:46:59;2.95;;;0.90;;
62861;SDS011;48953;53.110;5.592;2022-08-01T13:49:24;3.40;;;0.82;;
62861;SDS011;48953;53.110;5.592;2022-08-01T13:51:50;6.55;;;0.93;;
62861;SDS011;48953;53.110;5.592;2022-08-01T13:54:16;3.50;;;0.80;;
62861;SDS011;48953;53.110;5.592;2022-08-01T13:56:42;3.00;;;0.90;;
62861;SDS011;48953;53.110;5.592;2022-08-01T13:59:07;6.40;;;1.00;;
62861;SDS011;48953;53.110;5.592;2022-08-01T14:01:33;5.70;;;0.98;;
62861;SDS011;48953;53.110;5.592;2022-08-01T14:04:00;5.82;;;0.90;;
62861;SDS011;48953;53.110;5.592;2022-08-01T14:06:26;4.22;;;0.90;;
62861;SDS011;48953;53.110;5.592;2022-08-01T14:08:52;3.50;;;0.85;;
62861;SDS011;48953;53.110;5.592;2022-08-01T14:11:17;4.50;;;0.82;;
62861;SDS011;48953;53.110;5.592;2022-08-01T14:13:43;2.72;;;1.20;;
62861;SDS011;48953;53.110;5.592;2022-08-01T14:16:11;6.07;;;1.05;;
62861;SDS011;48953;53.110;5.592;2022-08-01T14:18:37;2.00;;;0.73;;
62861;SDS011;48953;53.110;5.592;2022-08-01T14:21:03;2.58;;;0.80;;
62861;SDS011;48953;53.110;5.592;2022-08-01T14:23:35;3.28;;;0.70;;
62861;SDS011;48953;53.110;5.592;2022-08-01T14:26:00;4.93;;;0.82;;
62861;SDS011;48953;53.110;5.592;2022-08-01T14:28:26;2.30;;;0.90;;
62861;SDS011;48953;53.110;5.592;2022-08-01T14:30:53;5.65;;;0.95;;
62861;SDS011;48953;53.110;5.592;2022-08-01T14:33:21;2.30;;;0.68;;
62861;SDS011;48953;53.110;5.592;2022-08-01T14:35:47;6.38;;;1.00;;
62861;SDS011;48953;53.110;5.592;2022-08-01T14:38:12;7.45;;;0.90;;
62861;SDS011;48953;53.110;5.592;2022-08-01T14:40:38;4.45;;;0.70;;
62861;SDS011;48953;53.110;5.592;2022-08-01T14:43:05;3.05;;;0.82;;
62861;SDS011;48953;53.110;5.592;2022-08-01T14:45:31;2.75;;;0.70;;
62861;SDS011;48953;53.110;5.592;2022-08-01T14:47:57;5.53;;;1.08;;
62861;SDS011;48953;53.110;5.592;2022-08-01T14:50:23;5.40;;;0.98;;
62861;SDS011;48953;53.110;5.592;2022-08-01T14:52:51;5.22;;;1.10;;
62861;SDS011;48953;53.110;5.592;2022-08-01T14:55:17;3.97;;;0.82;;
62861;SDS011;48953;53.110;5.592;2022-08-01T14:57:46;3.28;;;0.70;;
62861;SDS011;48953;53.110;5.592;2022-08-01T15:00:12;2.92;;;0.73;;
62861;SDS011;48953;53.110;5.592;2022-08-01T15:02:38;6.07;;;1.08;;
62861;SDS011;48953;53.110;5.592;2022-08-01T15:05:04;5.00;;;0.90;;
62861;SDS011;48953;53.110;5.592;2022-08-01T15:07:31;5.22;;;1.15;;
62861;SDS011;48953;53.110;5.592;2022-08-01T15:09:57;3.45;;;0.90;;
62861;SDS011;48953;53.110;5.592;2022-08-01T15:12:25;2.50;;;1.08;;
62861;SDS011;48953;53.110;5.592;2022-08-01T15:14:50;2.65;;;0.80;;
62861;SDS011;48953;53.110;5.592;2022-08-01T15:17:19;7.20;;;0.77;;
62861;SDS011;48953;53.110;5.592;2022-08-01T15:19:47;4.13;;;1.30;;
62861;SDS011;48953;53.110;5.592;2022-08-01T15:22:14;9.85;;;1.50;;
62861;SDS011;48953;53.110;5.592;2022-08-01T15:24:40;1.80;;;0.68;;
62861;SDS011;48953;53.110;5.592;2022-08-01T15:27:06;4.63;;;1.00;;
62861;SDS011;48953;53.110;5.592;2022-08-01T15:29:32;6.72;;;0.77;;
62861;SDS011;48953;53.110;5.592;2022-08-01T15:31:58;4.75;;;1.20;;
62861;SDS011;48953;53.110;5.592;2022-08-01T15:34:25;4.20;;;0.82;;